Time;durP1;ratioP1;P1;durP2;ratioP2;P2;SDS_P1;SDS_P2;PMS_P1;PMS_P2;Temp;Humidity;BMP_temperature;BMP_pressure;BME280_temperature;BME280_humidity;BME280_pressure;Samples;Min_cycle;Max_cycle;Signal;HPM_P1;HPM_P2
2023/04/07 00:00:58;;;;;;;13.63;5.07;;;;;;;;;;5011506;28;25089;-80
2023/04/07 00:03:24;;;;;;;12.43;5.70;;;;;;;;;;5036633;28;25054;-79
2023/04/07 00:05:53;;;;;;;12.05;5.95;;;;;;;;;;5040865;28;25065;-78
2023/04/07 00:08:20;;;;;;;11.95;5.28;;;;;;;;;;5001962;28;25082;-77
2023/04/07 00:10:46;;;;;;;15.10;5.40;;;;;;;;;;5005708;28;25109;-79
2023/04/07 00:13:12;;;;;;;21.85;7.93;;;;;;;;;;5026551;28;25134;-77
2023/04/07 00:15:38;;;;;;;18.77;6.03;;;;;;;;;;5006364;28;25078;-79
2023/04/07 00:18:04;;;;;;;19.08;5.95;;;;;;;;;;5023261;28;25073;-77
2023/04/07 00:20:30;;;;;;;18.13;6.00;;;;;;;;;;5024757;28;25083;-77
2023/04/07 00:22:56;;;;;;;17.85;6.22;;;;;;;;;;5000124;28;25056;-77
2023/04/07 00:25:22;;;;;;;18.58;5.75;;;;;;;;;;5004015;28;25058;-78
2023/04/07 00:27:48;;;;;;;18.83;7.30;;;;;;;;;;5005404;28;25059;-80
2023/04/07 00:30:14;;;;;;;16.20;5.75;;;;;;;;;;5004617;28;25053;-83
2023/04/07 00:32:40;;;;;;;21.77;7.00;;;;;;;;;;5022816;28;25094;-82
2023/04/07 00:35:06;;;;;;;22.13;7.45;;;;;;;;;;5029617;28;25073;-78
2023/04/07 00:37:32;;;;;;;18.85;5.95;;;;;;;;;;5031896;28;25158;-78
2023/04/07 00:39:59;;;;;;;17.27;5.93;;;;;;;;;;5016066;28;25069;-79
2023/04/07 00:42:25;;;;;;;23.63;6.55;;;;;;;;;;5017932;28;25083;-80
2023/04/07 00:44:51;;;;;;;16.70;5.72;;;;;;;;;;5017410;28;25117;-80
2023/04/07 00:47:17;;;;;;;20.85;6.78;;;;;;;;;;5010594;28;25060;-81
2023/04/07 00:49:43;;;;;;;14.70;5.90;;;;;;;;;;5025028;28;25064;-79
2023/04/07 00:52:10;;;;;;;9.20;4.97;;;;;;;;;;5001911;28;25068;-78
2023/04/07 00:54:37;;;;;;;15.75;5.22;;;;;;;;;;5023868;28;25074;-77
2023/04/07 00:57:03;;;;;;;17.42;6.60;;;;;;;;;;5022440;28;25065;-74
2023/04/07 00:59:31;;;;;;;21.58;5.15;;;;;;;;;;5005815;28;25073;-77
2023/04/07 01:02:18;;;;;;;18.30;5.60;;;;;;;;;;5006431;28;25080;-76
2023/04/07 01:04:47;;;;;;;14.05;4.80;;;;;;;;;;5023822;28;25063;-77
2023/04/07 01:07:24;;;;;;;15.18;5.32;;;;;;;;;;5008844;28;25109;-76
2023/04/07 01:10:04;;;;;;;12.45;5.35;;;;;;;;;;5006382;28;25084;-78
2023/04/07 01:12:36;;;;;;;18.70;5.57;;;;;;;;;;5000053;28;25107;-77
2023/04/07 01:15:09;;;;;;;14.20;5.05;;;;;;;;;;5004953;28;25087;-77
2023/04/07 01:17:37;;;;;;;11.52;4.47;;;;;;;;;;5015921;28;25051;-78
2023/04/07 01:20:06;;;;;;;15.43;4.80;;;;;;;;;;5021623;28;25081;-78
2023/04/07 01:22:35;;;;;;;14.38;5.78;;;;;;;;;;5020378;28;25057;-77
2023/04/07 01:25:19;;;;;;;21.02;5.95;;;;;;;;;;5003897;28;25066;-76
2023/04/07 01:27:51;;;;;;;16.52;5.22;;;;;;;;;;5003894;28;25072;-78
2023/04/07 01:30:19;;;;;;;10.35;4.65;;;;;;;;;;5003884;28;25133;-79
2023/04/07 01:32:46;;;;;;;14.95;5.10;;;;;;;;;;4997027;28;25059;-78
2023/04/07 01:35:13;;;;;;;17.25;4.63;;;;;;;;;;4999531;28;25060;-78
2023/04/07 01:37:39;;;;;;;14.35;4.70;;;;;;;;;;5003965;28;25095;-78
2023/04/07 01:40:07;;;;;;;13.52;4.75;;;;;;;;;;4999911;28;25059;-79
2023/04/07 01:42:33;;;;;;;15.07;4.65;;;;;;;;;;5000163;28;25141;-79
2023/04/07 01:45:00;;;;;;;16.48;4.47;;;;;;;;;;4998024;28;25082;-78
2023/04/07 01:47:29;;;;;;;14.70;5.28;;;;;;;;;;5009780;28;25075;-79
2023/04/07 01:49:58;;;;;;;16.40;5.47;;;;;;;;;;5013898;28;25058;-78
2023/04/07 01:52:27;;;;;;;22.77;5.95;;;;;;;;;;5029475;28;25093;-78
2023/04/07 01:54:53;;;;;;;20.23;5.25;;;;;;;;;;4999479;28;25163;-76
2023/04/07 01:57:20;;;;;;;14.75;4.78;;;;;;;;;;5020251;28;25114;-80
2023/04/07 01:59:46;;;;;;;18.33;4.85;;;;;;;;;;5000472;28;25062;-79
2023/04/07 02:02:12;;;;;;;18.30;5.28;;;;;;;;;;5025080;28;25151;-80
2023/04/07 02:04:50;;;;;;;14.15;4.68;;;;;;;;;;5011780;28;25063;-78
2023/04/07 02:07:21;;;;;;;15.45;5.07;;;;;;;;;;4997032;28;25100;-77
2023/04/07 02:09:49;;;;;;;21.33;5.18;;;;;;;;;;5019512;28;25062;-77
2023/04/07 02:12:16;;;;;;;24.05;5.82;;;;;;;;;;5021937;28;25057;-77
2023/04/07 02:14:43;;;;;;;11.65;4.35;;;;;;;;;;5024162;28;25072;-75
2023/04/07 02:17:10;;;;;;;19.42;5.60;;;;;;;;;;5016756;28;25063;-79
2023/04/07 02:19:36;;;;;;;11.40;4.30;;;;;;;;;;5008859;28;25061;-81
2023/04/07 02:22:03;;;;;;;18.73;4.28;;;;;;;;;;5016109;28;25052;-77
2023/04/07 02:24:29;;;;;;;14.40;4.13;;;;;;;;;;5003569;28;25052;-78
2023/04/07 02:26:56;;;;;;;18.67;6.38;;;;;;;;;;5011349;28;25064;-77
2023/04/07 02:29:22;;;;;;;25.50;5.57;;;;;;;;;;5014193;28;25067;-77
2023/04/07 02:31:48;;;;;;;23.90;5.63;;;;;;;;;;5010412;28;25104;-79
2023/04/07 02:34:14;;;;;;;23.52;5.35;;;;;;;;;;4998467;28;25173;-78
2023/04/07 02:36:40;;;;;;;23.63;5.53;;;;;;;;;;5008730;28;25063;-78
2023/04/07 02:39:09;;;;;;;25.67;5.72;;;;;;;;;;4992715;28;25058;-77
2023/04/07 02:41:35;;;;;;;24.13;6.47;;;;;;;;;;5021699;28;25071;-77
2023/04/07 02:44:01;;;;;;;21.52;5.75;;;;;;;;;;5001767;28;25055;-77
2023/04/07 02:46:27;;;;;;;31.60;7.75;;;;;;;;;;4998837;28;25058;-76
2023/04/07 02:48:53;;;;;;;18.38;5.38;;;;;;;;;;5012465;28;25096;-77
2023/04/07 02:51:19;;;;;;;22.08;5.97;;;;;;;;;;5019803;28;25091;-78
2023/04/07 02:53:47;;;;;;;21.48;5.68;;;;;;;;;;4999050;28;25070;-76
2023/04/07 02:56:13;;;;;;;22.08;6.60;;;;;;;;;;5003861;28;25146;-78
2023/04/07 02:58:39;;;;;;;18.42;5.38;;;;;;;;;;5021955;28;25052;-79
2023/04/07 03:01:05;;;;;;;20.50;6.15;;;;;;;;;;5023269;28;25157;-78
2023/04/07 03:03:31;;;;;;;13.18;5.43;;;;;;;;;;5015491;28;25064;-78
2023/04/07 03:05:57;;;;;;;16.35;5.35;;;;;;;;;;5015091;28;25044;-77
2023/04/07 03:08:23;;;;;;;15.77;5.90;;;;;;;;;;5030774;28;25090;-79
2023/04/07 03:10:49;;;;;;;20.10;5.82;;;;;;;;;;5001862;28;25078;-78
2023/04/07 03:13:17;;;;;;;20.38;5.20;;;;;;;;;;5013598;28;25059;-79
2023/04/07 03:15:44;;;;;;;23.77;6.25;;;;;;;;;;4997782;28;25052;-76
2023/04/07 03:18:10;;;;;;;17.23;6.03;;;;;;;;;;5016425;28;25058;-79
2023/04/07 03:20:37;;;;;;;14.20;5.30;;;11.00;99.90;;;;;;5004465;28;25064;-76
2023/04/07 03:23:03;;;;;;;18.17;6.47;;;;;;;;;;5020015;28;25089;-75
2023/04/07 03:25:30;;;;;;;23.85;5.88;;;;;;;;;;5022065;28;25103;-75
2023/04/07 03:27:56;;;;;;;19.85;5.70;;;;;;;;;;5008408;28;25057;-78
2023/04/07 03:30:22;;;;;;;25.88;6.93;;;;;;;;;;5019226;28;25079;-78
2023/04/07 03:32:48;;;;;;;19.65;6.10;;;;;;;;;;5006882;28;25078;-78
2023/04/07 03:35:14;;;;;;;19.67;6.25;;;;;;;;;;5019135;28;25104;-78
2023/04/07 03:37:40;;;;;;;16.60;5.68;;;;;;;;;;5016744;28;25065;-78
2023/04/07 03:40:06;;;;;;;20.40;6.28;;;;;;;;;;5018827;28;25065;-77
2023/04/07 03:42:32;;;;;;;16.63;6.32;;;;;;;;;;5023024;28;25084;-76
2023/04/07 03:44:59;;;;;;;19.35;6.78;;;;;;;;;;4999920;28;25108;-76
2023/04/07 03:47:25;;;;;;;24.95;7.53;;;;;;;;;;4995290;28;25147;-77
2023/04/07 03:49:51;;;;;;;14.23;6.38;;;;;;;;;;5018716;28;25086;-77
2023/04/07 03:52:17;;;;;;;23.58;8.40;;;;;;;;;;5033654;28;25075;-77
2023/04/07 03:54:43;;;;;;;19.58;8.15;;;;;;;;;;5019376;28;25065;-77
2023/04/07 03:57:09;;;;;;;21.10;9.25;;;;;;;;;;4993943;28;25069;-78
2023/04/07 03:59:35;;;;;;;38.13;11.52;;;;;;;;;;4995131;28;25072;-78
2023/04/07 04:02:01;;;;;;;34.53;10.60;;;;;;;;;;5012930;28;25145;-75
2023/04/07 04:04:27;;;;;;;27.80;11.25;;;;;;;;;;5016908;28;25053;-80
2023/04/07 04:06:53;;;;;;;22.52;10.98;;;;;;;;;;4998683;28;25160;-77
2023/04/07 04:09:19;;;;;;;28.45;12.13;;;;;;;;;;5022266;28;25089;-76
2023/04/07 04:11:46;;;;;;;28.77;10.90;;;;;;;;;;5020492;28;25089;-78
2023/04/07 04:14:12;;;;;;;22.98;11.00;;;;;;;;;;5017628;28;25075;-76
2023/04/07 04:16:38;;;;;;;30.02;11.90;;;;;;;;;;5018985;28;25069;-77
2023/04/07 04:19:04;;;;;;;27.10;11.55;;;;;;;;;;5005722;28;25051;-79
2023/04/07 04:21:30;;;;;;;30.00;9.82;;;;;;;;;;5000313;28;25069;-78
2023/04/07 04:23:56;;;;;;;20.00;9.07;;;;;;;;;;5022164;28;25086;-78
2023/04/07 04:26:24;;;;;;;27.08;10.05;;;;;;;;;;5001846;28;25063;-78
2023/04/07 04:28:51;;;;;;;22.67;9.35;;;;;;;;;;5001090;28;25066;-77
2023/04/07 04:31:17;;;;;;;25.98;8.98;;;;;;;;;;4993370;28;25053;-78
2023/04/07 04:33:43;;;;;;;29.98;9.07;;;;;;;;;;5017960;28;25133;-75
2023/04/07 04:36:09;;;;;;;23.08;8.93;;;;;;;;;;5004431;28;25076;-80
2023/04/07 04:38:35;;;;;;;19.58;8.77;;;;;;;;;;5011323;28;25109;-77
2023/04/07 04:41:01;;;;;;;21.17;7.20;;;;;;;;;;5001096;28;25078;-80
2023/04/07 04:43:27;;;;;;;24.27;8.20;;;;;;;;;;5000684;28;25057;-77
2023/04/07 04:45:53;;;;;;;24.48;7.40;;;;;;;;;;5002177;28;25077;-76
2023/04/07 04:48:20;;;;;;;17.85;6.80;;;;;;;;;;5005130;28;25080;-80
2023/04/07 04:50:45;;;;;;;17.35;5.65;;;;;;;;;;4999503;28;25080;-79
2023/04/07 04:53:12;;;;;;;14.43;5.55;;;;;;;;;;5001677;28;25098;-77
2023/04/07 04:55:39;;;;;;;13.82;5.55;;;;;;;;;;4999051;28;25051;-78
2023/04/07 04:58:05;;;;;;;11.90;4.78;;;;;;;;;;5020445;28;25110;-79
2023/04/07 05:00:31;;;;;;;15.07;5.20;;;;;;;;;;5016674;28;25065;-79
2023/04/07 05:02:57;;;;;;;21.15;6.03;;;;;;;;;;5021084;28;25074;-78
2023/04/07 05:05:23;;;;;;;19.65;5.28;;;;;;;;;;4996309;28;25100;-79
2023/04/07 05:07:50;;;;;;;11.35;5.00;;;;;;;;;;5023801;28;25080;-76
2023/04/07 05:10:16;;;;;;;8.02;3.00;;;;;;;;;;4997267;28;25108;-78
2023/04/07 05:12:43;;;;;;;17.27;4.00;;;;;;;;;;5000085;28;25082;-79
2023/04/07 05:15:09;;;;;;;10.93;3.72;;;;;;;;;;5023781;28;25071;-79
2023/04/07 05:17:37;;;;;;;10.75;3.90;;;;;;;;;;5004257;28;25115;-76
2023/04/07 05:20:03;;;;;;;12.10;3.92;;;;;;;;;;5004432;28;25064;-76
2023/04/07 05:22:29;;;;;;;12.65;4.22;;;;;;;;;;5016395;28;25081;-78
2023/04/07 05:24:55;;;;;;;18.48;4.18;;;;;;;;;;4999597;28;25087;-79
2023/04/07 05:27:21;;;;;;;10.40;4.38;;;;;;;;;;4998881;28;25066;-76
2023/04/07 05:29:47;;;;;;;15.82;4.75;;;;;;;;;;4998609;28;25068;-79
2023/04/07 05:32:13;;;;;;;10.68;4.40;;;;;;;;;;5015302;28;25057;-78
2023/04/07 05:34:40;;;;;;;13.15;4.32;;;;;;;;;;4996459;28;25059;-76
2023/04/07 05:37:06;;;;;;;11.80;4.68;;;;;;;;;;5018766;28;25082;-75
2023/04/07 05:39:32;;;;;;;12.57;4.28;;;;;;;;;;5014927;28;25077;-76
2023/04/07 05:41:58;;;;;;;10.93;4.70;;;;;;;;;;5009055;28;25078;-75
2023/04/07 05:44:24;;;;;;;15.05;4.28;;;;;;;;;;5015529;28;25096;-74
2023/04/07 05:46:50;;;;;;;16.42;4.05;;;;;;;;;;4994219;28;25131;-74
2023/04/07 05:49:16;;;;;;;10.80;3.70;;;;;;;;;;5015925;28;25078;-73
2023/04/07 05:51:42;;;;;;;16.58;5.22;;;;;;;;;;4997575;28;25067;-76
2023/04/07 05:54:08;;;;;;;12.13;4.78;;;;;;;;;;5016997;28;25154;-75
2023/04/07 05:56:34;;;;;;;19.10;4.78;;;;;;;;;;5008250;28;25055;-74
2023/04/07 05:59:00;;;;;;;11.95;3.70;;;;;;;;;;5006682;28;25053;-76
2023/04/07 06:01:26;;;;;;;12.65;3.92;;;;;;;;;;4990188;28;25080;-76
2023/04/07 06:03:53;;;;;;;19.95;3.70;;;;;;;;;;4987405;28;25085;-77
2023/04/07 06:06:19;;;;;;;11.88;4.25;;;;;;;;;;4991949;28;25062;-72
2023/04/07 06:08:46;;;;;;;10.00;3.58;;;;;;;;;;5013321;28;25062;-73
2023/04/07 06:11:12;;;;;;;10.23;3.53;;;;;;;;;;5009816;28;25096;-74
2023/04/07 06:13:38;;;;;;;14.35;3.35;;;;;;;;;;5014583;28;25068;-74
2023/04/07 06:16:05;;;;;;;9.13;2.40;;;;;;;;;;5021826;28;25081;-73
2023/04/07 06:18:31;;;;;;;6.30;2.53;;;;;;;;;;5010871;28;25076;-73
2023/04/07 06:20:57;;;;;;;6.85;2.33;;;;;;;;;;5019215;28;25065;-72
2023/04/07 06:23:23;;;;;;;8.10;1.90;;;;;;;;;;5019236;28;25093;-74
2023/04/07 06:25:51;;;;;;;7.38;2.88;;;;;;;;;;5017605;28;25079;-74
2023/04/07 06:28:18;;;;;;;7.68;3.58;;;;;;;;;;5021530;28;25063;-72
2023/04/07 06:30:44;;;;;;;10.23;2.65;;;;;;;;;;4999965;28;25074;-75
2023/04/07 06:33:10;;;;;;;13.80;2.85;;;;;;;;;;5021593;28;25163;-74
2023/04/07 06:35:36;;;;;;;8.15;2.28;;;;;;;;;;5018018;28;25093;-72
2023/04/07 06:38:02;;;;;;;9.15;2.00;;;;;;;;;;5012591;28;25073;-74
2023/04/07 06:40:28;;;;;;;11.13;2.17;;;;;;;;;;5012965;28;25056;-72
2023/04/07 06:42:54;;;;;;;9.13;2.42;;;;;;;;;;5017582;28;25065;-74
2023/04/07 06:45:20;;;;;;;13.43;3.88;;;;;;;;;;5021897;28;25089;-74
2023/04/07 06:47:47;;;;;;;5.63;2.17;;;;;;;;;;5016077;28;25062;-73
2023/04/07 06:50:13;;;;;;;5.40;1.85;;;;;;;;;;5022479;28;25065;-74
2023/04/07 06:52:39;;;;;;;7.85;2.45;;;;;;;;;;5002498;28;25140;-72
2023/04/07 06:55:06;;;;;;;4.88;1.95;;;;;;;;;;5015011;28;25091;-76
2023/04/07 06:57:32;;;;;;;8.98;2.35;;;;;;;;;;5019796;28;25101;-73
2023/04/07 06:59:58;;;;;;;10.38;2.28;;;;;;;;;;5014464;28;25054;-77
2023/04/07 07:02:24;;;;;;;5.15;1.73;;;10.00;99.90;;;;;;5007525;28;25078;-75
2023/04/07 07:04:50;;;;;;;14.57;1.98;;;;;;;;;;5020286;28;25085;-76
2023/04/07 07:07:16;;;;;;;5.53;1.65;;;;;;;;;;5016376;28;25064;-74
2023/04/07 07:09:42;;;;;;;5.57;1.42;;;;;;;;;;5012898;28;25202;-73
2023/04/07 07:12:08;;;;;;;11.90;2.13;;;;;;;;;;5001989;28;25054;-73
2023/04/07 07:14:34;;;;;;;9.48;2.10;;;;;;;;;;4995374;28;25100;-72
2023/04/07 07:17:00;;;;;;;8.60;1.85;;;;;;;;;;5011007;28;25074;-73
2023/04/07 07:19:26;;;;;;;4.68;1.55;;;;;;;;;;4998078;28;25097;-73
2023/04/07 07:21:52;;;;;;;11.57;1.98;;;;;;;;;;5020032;28;25102;-74
2023/04/07 07:24:18;;;;;;;17.40;4.00;;;;;;;;;;5020769;28;25076;-73
2023/04/07 07:26:44;;;;;;;4.70;1.48;;;;;;;;;;5016851;28;25089;-72
2023/04/07 07:29:10;;;;;;;9.23;2.83;;;;;;;;;;5015579;28;25088;-75
2023/04/07 07:31:36;;;;;;;9.23;3.08;;;;;;;;;;5013715;28;25062;-71
2023/04/07 07:34:02;;;;;;;3.88;1.60;;;;;;;;;;5022366;28;25059;-72
2023/04/07 07:36:28;;;;;;;6.05;1.80;;;;;;;;;;5019553;28;25076;-71
2023/04/07 07:38:54;;;;;;;7.10;2.03;;;;;;;;;;4998183;28;25076;-73
2023/04/07 07:41:20;;;;;;;6.38;1.42;;;;;;;;;;5008576;28;25064;-73
2023/04/07 07:43:46;;;;;;;7.20;1.90;;;;;;;;;;5015516;28;25084;-73
2023/04/07 07:46:12;;;;;;;10.23;2.10;;;;;;;;;;5013248;28;25107;-74
2023/04/07 07:48:38;;;;;;;15.40;2.85;;;;;;;;;;5009167;28;25067;-74
2023/04/07 07:51:05;;;;;;;7.85;1.55;;;;;;;;;;5017197;28;25070;-74
2023/04/07 07:53:31;;;;;;;8.63;1.88;;;;;;;;;;5018756;28;25061;-72
2023/04/07 07:55:57;;;;;;;6.32;1.83;;;;;;;;;;5016546;28;25075;-76
2023/04/07 07:58:22;;;;;;;5.25;1.65;;;;;;;;;;5013109;28;25076;-75
2023/04/07 08:00:49;;;;;;;5.70;1.20;;;;;;;;;;5018867;28;25074;-72
2023/04/07 08:03:16;;;;;;;8.05;1.50;;;;;;;;;;5020432;28;25097;-75
2023/04/07 08:05:43;;;;;;;5.82;1.33;;;;;;;;;;5013567;28;25058;-73
2023/04/07 08:08:09;;;;;;;4.28;1.35;;;;;;;;;;4998405;28;25076;-73
2023/04/07 08:10:35;;;;;;;9.30;1.70;;;;;;;;;;5026169;28;25048;-79
2023/04/07 08:13:01;;;;;;;10.48;1.70;;;;;;;;;;5023505;28;25099;-73
2023/04/07 08:15:27;;;;;;;8.57;2.08;;;;;;;;;;5004991;28;25095;-75
2023/04/07 08:17:53;;;;;;;6.45;2.10;;;;;;;;;;5012441;28;25076;-78
2023/04/07 08:20:19;;;;;;;7.57;1.80;;;;;;;;;;5007841;28;25107;-74
2023/04/07 08:22:45;;;;;;;5.30;2.05;;;;;;;;;;5009117;28;25053;-76
2023/04/07 08:25:11;;;;;;;9.95;2.45;;;;;;;;;;4995981;28;25077;-73
2023/04/07 08:27:37;;;;;;;9.27;2.83;;;;;;;;;;5014342;28;25160;-74
2023/04/07 08:30:08;;;;;;;12.95;1.50;;;;;;;;;;5011457;28;25072;-70
2023/04/07 08:32:35;;;;;;;13.02;3.13;;;;;;;;;;5004191;28;25089;-75
2023/04/07 08:35:01;;;;;;;7.97;2.00;;;;;;;;;;5014857;28;25191;-75
2023/04/07 08:37:27;;;;;;;7.93;1.60;;;;;;;;;;4992519;28;25083;-72
2023/04/07 08:39:53;;;;;;;6.05;2.30;;;;;;;;;;4999022;28;25065;-73
2023/04/07 08:42:19;;;;;;;7.07;2.10;;;;;;;;;;5005290;28;25151;-73
2023/04/07 08:44:47;;;;;;;6.18;1.90;;;;;;;;;;5000221;28;25054;-72
2023/04/07 08:47:15;;;;;;;8.13;2.22;;;;;;;;;;5000695;28;25077;-72
2023/04/07 08:49:44;;;;;;;8.80;1.70;;;;;;;;;;5001414;28;25061;-75
2023/04/07 08:52:11;;;;;;;6.20;2.03;;;;;;;;;;5016938;28;25051;-74
2023/04/07 08:54:37;;;;;;;12.77;2.05;;;;;;;;;;5017943;28;25093;-75
2023/04/07 08:57:04;;;;;;;5.38;1.50;;;;;;;;;;5009503;28;25059;-72
2023/04/07 08:59:32;;;;;;;5.32;1.73;;;;;;;;;;5014958;28;25083;-72
2023/04/07 09:01:59;;;;;;;4.07;1.40;;;;;;;;;;5007957;28;25071;-75
2023/04/07 09:04:26;;;;;;;6.07;2.03;;;;;;;;;;5017820;28;25061;-73
2023/04/07 09:06:52;;;;;;;5.63;2.13;;;;;;;;;;5015538;28;25082;-74
2023/04/07 09:09:18;;;;;;;9.27;2.08;;;;;;;;;;5011769;28;25064;-72
2023/04/07 09:11:44;;;;;;;7.57;1.88;;;;;;;;;;5002344;28;25050;-74
2023/04/07 09:14:10;;;;;;;6.15;2.25;;;;;;;;;;4994673;28;25059;-74
2023/04/07 09:16:37;;;;;;;11.88;2.42;;;;;;;;;;4999509;28;25069;-75
2023/04/07 09:19:03;;;;;;;15.65;2.22;;;;;;;;;;5018625;28;25106;-70
2023/04/07 09:21:47;;;;;;;11.35;2.80;;;;;;;;;;5009570;28;25083;-77
2023/04/07 09:24:40;;;;;;;12.05;2.58;;;;;;;;;;4994654;28;25062;-76
2023/04/07 09:27:12;;;;;;;9.82;2.38;;;;;;;;;;5000868;28;25108;-75
2023/04/07 09:29:39;;;;;;;10.18;2.42;;;;;;;;;;5003432;28;25095;-74
2023/04/07 09:32:05;;;;;;;7.63;2.35;;;;;;;;;;5004331;28;25138;-75
2023/04/07 09:34:33;;;;;;;5.63;1.90;;;;;;;;;;4996318;28;25072;-74
2023/04/07 09:36:59;;;;;;;8.25;1.80;;;;;;;;;;5005894;28;25077;-72
2023/04/07 09:39:25;;;;;;;12.68;3.53;;;;;;;;;;5002023;28;25073;-75
2023/04/07 09:41:51;;;;;;;10.82;2.47;;;;;;;;;;5004424;28;25068;-75
2023/04/07 09:44:21;;;;;;;6.45;1.58;;;;;;;;;;5002639;28;25055;-74
2023/04/07 09:46:48;;;;;;;10.90;2.53;;;;;;;;;;4991172;28;25119;-74
2023/04/07 09:49:14;;;;;;;3.33;1.40;;;;;;;;;;5006311;28;25055;-74
2023/04/07 09:51:51;;;;;;;3.83;1.42;;;;;;;;;;4988088;28;25077;-76
2023/04/07 09:54:31;;;;;;;8.00;1.73;;;;;;;;;;5005573;28;25081;-73
2023/04/07 09:56:58;;;;;;;12.38;2.80;;;;;;;;;;5003460;28;25077;-74
2023/04/07 09:59:25;;;;;;;10.77;2.58;;;;;;;;;;4997351;28;25132;-75
2023/04/07 10:01:51;;;;;;;3.88;1.83;;;;;;;;;;5000389;28;25122;-74
2023/04/07 10:04:16;;;;;;;10.63;1.60;;;10.10;99.90;;;;;;5001435;28;25138;-74
2023/04/07 10:06:43;;;;;;;11.10;2.15;;;;;;;;;;5006738;28;25139;-75
2023/04/07 10:09:09;;;;;;;13.35;1.88;;;;;;;;;;4998378;28;25072;-76
2023/04/07 10:11:36;;;;;;;7.75;1.92;;;;;;;;;;4991385;28;25142;-72
2023/04/07 10:14:02;;;;;;;8.88;1.45;;;;;;;;;;5000572;28;25044;-72
2023/04/07 10:16:29;;;;;;;11.73;1.98;;;10.00;99.90;;;;;;5004975;28;25069;-72
2023/04/07 10:18:55;;;;;;;6.88;1.55;;;;;;;;;;5007376;28;25138;-74
2023/04/07 10:21:22;;;;;;;6.22;1.60;;;;;;;;;;5009855;28;25157;-75
2023/04/07 10:23:57;;;;;;;8.85;1.92;;;;;;;;;;5001933;28;25142;-74
2023/04/07 10:26:26;;;;;;;14.90;2.50;;;;;;;;;;5001065;28;25096;-73
2023/04/07 10:28:55;;;;;;;17.13;2.30;;;;;;;;;;5006763;28;25147;-76
2023/04/07 10:31:22;;;;;;;5.50;1.80;;;;;;;;;;5003551;28;25135;-72
2023/04/07 10:33:49;;;;;;;5.88;1.92;;;;;;;;;;5014316;28;25077;-75
2023/04/07 10:36:16;;;;;;;6.28;1.70;;;;;;;;;;5009057;28;25049;-75
2023/04/07 10:39:03;;;;;;;11.00;2.25;;;;;;;;;;5004501;28;25073;-73
2023/04/07 10:41:35;;;;;;;5.68;2.03;;;;;;;;;;5009779;28;25080;-73
2023/04/07 10:44:02;;;;;;;5.47;1.90;;;;;;;;;;5001405;28;25108;-74
2023/04/07 10:46:58;;;;;;;7.93;1.73;;;;;;;;;;5009317;28;25156;-73
2023/04/07 10:49:24;;;;;;;7.43;1.98;;;;;;;;;;4977915;28;25083;-72
2023/04/07 10:52:10;;;;;;;6.50;1.80;;;;;;;;;;5008092;28;25103;-75
2023/04/07 10:54:36;;;;;;;11.88;1.55;;;;;;;;;;4994468;28;25183;-73
2023/04/07 10:57:02;;;;;;;11.75;3.08;;;;;;;;;;5003520;28;25105;-72
2023/04/07 10:59:32;;;;;;;12.85;2.40;;;;;;;;;;4987764;28;25129;-73
2023/04/07 11:02:21;;;;;;;6.95;1.85;;;;;;;;;;5008718;28;25092;-76
2023/04/07 11:04:47;;;;;;;9.65;1.77;;;;;;;;;;4996217;28;25191;-73
2023/04/07 11:07:15;;;;;;;7.40;1.50;;;;;;;;;;4998402;28;25103;-73
2023/04/07 11:09:42;;;;;;;18.15;5.78;;;;;;;;;;5008364;28;25072;-72
2023/04/07 11:12:08;;;;;;;11.75;1.92;;;;;;;;;;5005046;28;25079;-73
2023/04/07 11:14:36;;;;;;;4.78;3.08;;;;;;;;;;5008953;28;25080;-72
2023/04/07 11:17:02;;;;;;;12.30;2.50;;;9.80;99.90;;;;;;5005052;28;25075;-73
2023/04/07 11:19:29;;;;;;;9.68;2.13;;;;;;;;;;5006953;28;25044;-74
2023/04/07 11:22:13;;;;;;;12.40;2.70;;;;;;;;;;5007777;28;25147;-74
2023/04/07 11:24:39;;;;;;;6.00;1.63;;;;;;;;;;5010102;28;25051;-75
2023/04/07 11:27:07;;;;;;;10.27;2.03;;;;;;;;;;5010014;28;25106;-75
2023/04/07 11:29:33;;;;;;;10.23;2.60;;;;;;;;;;5009001;28;25110;-74
2023/04/07 11:32:01;;;;;;;10.57;1.85;;;;;;;;;;5009124;28;25111;-71
2023/04/07 11:34:30;;;;;;;11.45;2.10;;;;;;;;;;5009831;28;25073;-72
2023/04/07 11:37:00;;;;;;;8.25;2.03;;;;;;;;;;5007043;28;25112;-73
2023/04/07 11:39:29;;;;;;;9.63;2.55;;;;;;;;;;5014600;28;25061;-77
2023/04/07 11:41:55;;;;;;;10.77;2.35;;;;;;;;;;5017361;28;25068;-75
2023/04/07 11:44:21;;;;;;;7.43;2.22;;;;;;;;;;5016539;28;25078;-73
2023/04/07 11:46:54;;;;;;;5.28;2.22;;;;;;;;;;5021106;28;25083;-79
2023/04/07 11:49:20;;;;;;;;;;;;;;;;;;5027963;28;25108;-74
2023/04/07 11:51:46;;;;;;;7.53;1.50;;;;;;;;;;5026112;28;24069;-72
2023/04/07 11:54:12;;;;;;;13.85;2.30;;;;;;;;;;5017805;28;25149;-71
2023/04/07 11:56:46;;;;;;;12.00;2.30;;;;;;;;;;5017894;28;25134;-73
2023/04/07 11:59:19;;;;;;;14.07;2.30;;;;;;;;;;5014731;28;25060;-75
2023/04/07 12:01:46;;;;;;;9.40;2.55;;;;;;;;;;5023703;28;25097;-73
2023/04/07 12:04:14;;;;;;;5.38;1.90;;;;;;;;;;5023552;28;25062;-73
2023/04/07 12:06:41;;;;;;;9.48;1.65;;;;;;;;;;5012987;28;25096;-72
2023/04/07 12:09:08;;;;;;;11.18;1.90;;;;;;;;;;4999225;28;25094;-76
2023/04/07 12:11:35;;;;;;;9.57;2.17;;;;;;;;;;5008642;28;25075;-74
2023/04/07 12:14:03;;;;;;;7.53;2.35;;;;;;;;;;5004763;28;25054;-74
2023/04/07 12:16:29;;;;;;;8.65;2.25;;;;;;;;;;5007574;28;25066;-74
2023/04/07 12:18:56;;;;;;;11.75;2.30;;;;;;;;;;4996232;28;25082;-72
2023/04/07 12:21:24;;;;;;;21.38;2.10;;;;;;;;;;4982035;28;25077;-75
2023/04/07 12:23:50;;;;;;;6.97;2.28;;;;;;;;;;5003519;28;25093;-76
2023/04/07 12:26:16;;;;;;;7.30;1.77;;;;;;;;;;4997172;28;25051;-74
2023/04/07 12:28:42;;;;;;;9.68;2.42;;;;;;;;;;5015033;28;25151;-73
2023/04/07 12:31:09;;;;;;;8.77;2.45;;;;;;;;;;5009699;28;25079;-73
2023/04/07 12:33:35;;;;;;;7.38;2.80;;;;;;;;;;5002439;28;25067;-73
2023/04/07 12:36:01;;;;;;;12.07;3.50;;;;;;;;;;5006356;28;25149;-73
2023/04/07 12:38:27;;;;;;;7.78;1.67;;;;;;;;;;5001037;28;25060;-74
2023/04/07 12:40:53;;;;;;;8.20;1.90;;;;;;;;;;4999407;28;25092;-75
2023/04/07 12:43:19;;;;;;;18.52;2.08;;;;;;;;;;4999445;28;25060;-74
2023/04/07 12:45:46;;;;;;;8.48;1.50;;;;;;;;;;5005987;28;25075;-74
2023/04/07 12:48:12;;;;;;;4.82;1.52;;;;;;;;;;4986439;28;25058;-74
2023/04/07 12:50:38;;;;;;;4.20;1.60;;;;;;;;;;5006722;28;25110;-74
2023/04/07 12:53:04;;;;;;;10.93;2.45;;;;;;;;;;5015996;28;25100;-75
2023/04/07 12:55:32;;;;;;;7.38;2.25;;;;;;;;;;5006594;28;25060;-76
2023/04/07 12:57:59;;;;;;;7.22;1.98;;;;;;;;;;5002876;28;25112;-76
2023/04/07 13:00:25;;;;;;;10.02;2.13;;;;;;;;;;4993806;28;25052;-73
2023/04/07 13:02:51;;;;;;;5.68;1.58;;;;;;;;;;5004961;28;25082;-74
2023/04/07 13:05:17;;;;;;;11.27;1.88;;;;;;;;;;4996099;28;25150;-73
2023/04/07 13:07:43;;;;;;;6.03;1.65;;;;;;;;;;4998561;28;25076;-76
2023/04/07 13:10:10;;;;;;;7.50;1.48;;;;;;;;;;5006697;28;25109;-73
2023/04/07 13:12:36;;;;;;;5.57;1.60;;;;;;;;;;5004585;28;25065;-72
2023/04/07 13:15:02;;;;;;;8.93;2.22;;;;;;;;;;4998461;28;25148;-71
2023/04/07 13:17:28;;;;;;;17.25;1.83;;;;;;;;;;4997461;28;25078;-77
2023/04/07 13:19:55;;;;;;;8.93;1.83;;;;;;;;;;5005828;28;25070;-73
2023/04/07 13:22:21;;;;;;;8.73;2.10;;;;;;;;;;4988669;28;25149;-73
2023/04/07 13:24:47;;;;;;;9.23;2.60;;;;;;;;;;5007561;28;25080;-75
2023/04/07 13:27:13;;;;;;;5.20;1.60;;;;;;;;;;5006588;28;25077;-73
2023/04/07 13:29:39;;;;;;;5.88;3.53;;;;;;;;;;4988396;28;25116;-73
2023/04/07 13:32:09;;;;;;;5.75;1.98;;;;;;;;;;4993102;28;25063;-72
2023/04/07 13:34:35;;;;;;;8.25;1.50;;;;;;;;;;4998049;28;25105;-72
2023/04/07 13:37:02;;;;;;;8.02;1.63;;;10.20;99.90;;;;;;4999360;28;25083;-72
2023/04/07 13:39:29;;;;;;;5.85;2.10;;;;;;;;;;4969831;28;25112;-71
2023/04/07 13:41:55;;;;;;;5.90;1.52;;;;;;;;;;4988770;28;25074;-75
2023/04/07 13:44:21;;;;;;;5.30;1.83;;;;;;;;;;5000962;28;25078;-77
2023/04/07 13:46:47;;;;;;;5.72;1.98;;;;;;;;;;4991651;28;25089;-76
2023/04/07 13:49:13;;;;;;;7.80;1.92;;;;;;;;;;5005067;28;25096;-74
2023/04/07 13:51:40;;;;;;;13.68;2.33;;;;;;;;;;5005691;28;25108;-74
2023/04/07 13:54:06;;;;;;;9.38;1.42;;;;;;;;;;4977436;28;25220;-75
2023/04/07 13:56:34;;;;;;;10.65;2.25;;;;;;;;;;5004976;28;25063;-76
2023/04/07 13:59:00;;;;;;;6.18;1.77;;;;;;;;;;4989637;28;25075;-73
2023/04/07 14:01:26;;;;;;;6.80;2.20;;;;;;;;;;5005034;28;25072;-74
2023/04/07 14:03:52;;;;;;;10.13;2.10;;;;;;;;;;4998297;28;25105;-76
2023/04/07 14:06:21;;;;;;;12.05;2.00;;;;;;;;;;4997015;28;25100;-72
2023/04/07 14:08:47;;;;;;;15.20;1.80;;;;;;;;;;4996795;28;25170;-74
2023/04/07 14:11:16;;;;;;;11.95;2.10;;;;;;;;;;4997709;28;25063;-75
2023/04/07 14:13:42;;;;;;;9.57;2.30;;;;;;;;;;5005150;28;25065;-74
2023/04/07 14:16:08;;;;;;;7.10;2.40;;;;;;;;;;4999970;28;25066;-73
2023/04/07 14:18:34;;;;;;;5.55;1.77;;;;;;;;;;4994826;28;25092;-75
2023/04/07 14:21:02;;;;;;;10.82;2.15;;;;;;;;;;5005514;28;25125;-75
2023/04/07 14:23:28;;;;;;;8.18;2.15;;;;;;;;;;5004413;28;25071;-75
2023/04/07 14:25:53;;;;;;;9.93;2.50;;;;;;;;;;4993974;28;25163;-76
2023/04/07 14:28:20;;;;;;;9.98;1.67;;;;;;;;;;4981030;28;25081;-73
2023/04/07 14:30:47;;;;;;;10.88;1.63;;;;;;;;;;4997313;28;25073;-75
2023/04/07 14:33:13;;;;;;;8.95;1.85;;;;;;;;;;5000677;28;25075;-75